createdAt,value
2022-10-15T00:03:49.040Z,99.90
2022-10-15T00:08:53.173Z,99.90
2022-10-15T00:13:58.771Z,99.90
2022-10-15T00:19:01.665Z,99.90
2022-10-15T00:24:06.506Z,97.50
2022-10-15T00:29:09.337Z,99.90
2022-10-15T00:34:12.193Z,99.90
2022-10-15T00:39:16.338Z,99.90
2022-10-15T00:44:58.794Z,99.90
2022-10-15T00:50:06.717Z,99.90
2022-10-15T00:55:15.053Z,99.90
2022-10-15T01:00:19.390Z,99.90
2022-10-15T01:05:22.920Z,99.90
2022-10-15T01:10:33.881Z,99.90
2022-10-15T01:15:44.449Z,99.90
2022-10-15T01:21:11.044Z,99.90
2022-10-15T01:26:47.511Z,99.90
2022-10-15T01:32:02.363Z,99.90
2022-10-15T01:37:15.301Z,99.90
2022-10-15T01:42:26.868Z,99.90
2022-10-15T01:47:37.489Z,99.90
2022-10-15T01:52:42.832Z,99.90
2022-10-15T01:57:47.100Z,99.90
2022-10-15T02:02:51.198Z,99.90
2022-10-15T02:07:59.903Z,99.90
2022-10-15T02:13:10.984Z,99.90
2022-10-15T02:18:22.453Z,99.90
2022-10-15T02:23:29.648Z,99.90
2022-10-15T02:28:35.578Z,99.90
2022-10-15T02:33:40.206Z,99.90
2022-10-15T02:38:46.000Z,99.90
2022-10-15T02:43:49.362Z,99.90
2022-10-15T02:48:53.427Z,99.90
2022-10-15T02:53:56.206Z,99.90
2022-10-15T02:58:58.958Z,99.90
2022-10-15T03:04:03.732Z,99.90
2022-10-15T03:09:06.768Z,99.90
2022-10-15T03:14:09.558Z,99.90
2022-10-15T03:19:13.734Z,99.90
2022-10-15T03:24:16.515Z,99.90
2022-10-15T03:29:19.273Z,99.90
2022-10-15T03:34:23.376Z,99.90
2022-10-15T03:39:26.189Z,99.90
2022-10-15T03:44:29.032Z,99.90
2022-10-15T03:49:33.231Z,99.90
2022-10-15T03:54:35.973Z,99.90
2022-10-15T03:59:39.122Z,99.90
2022-10-15T04:04:43.301Z,99.90
2022-10-15T04:09:46.065Z,99.90
2022-10-15T04:14:48.850Z,99.90
2022-10-15T04:19:52.966Z,95.60
2022-10-15T04:24:55.763Z,99.90
2022-10-15T04:29:58.500Z,79.10
2022-10-15T04:35:02.584Z,99.90
2022-10-15T04:40:06.275Z,99.90
2022-10-15T04:45:10.128Z,99.90
2022-10-15T04:50:14.327Z,99.90
2022-10-15T04:55:17.200Z,99.90
2022-10-15T05:00:20.012Z,99.90
2022-10-15T05:05:24.165Z,99.90
2022-10-15T05:10:26.929Z,99.90
2022-10-15T05:15:29.742Z,99.90
2022-10-15T05:20:33.829Z,99.90
2022-10-15T05:25:36.625Z,99.90
2022-10-15T05:30:39.395Z,99.90
2022-10-15T05:35:43.482Z,99.90
2022-10-15T05:40:49.499Z,99.90
2022-10-15T05:45:55.057Z,99.90
2022-10-15T05:51:03.320Z,99.90
2022-10-15T05:56:06.531Z,99.90
2022-10-15T06:01:11.465Z,99.90
2022-10-15T06:06:18.097Z,99.90
2022-10-15T06:11:21.388Z,99.90
2022-10-15T06:16:24.396Z,99.90
2022-10-15T06:21:28.560Z,99.90
2022-10-15T06:26:31.313Z,99.90
2022-10-15T06:31:34.178Z,99.90
2022-10-15T06:36:38.963Z,99.90
2022-10-15T06:41:41.767Z,99.90
2022-10-15T06:46:44.550Z,7.40
2022-10-15T06:51:48.672Z,1.00
2022-10-15T06:56:51.662Z,1.00
2022-10-15T07:01:54.409Z,1.00
2022-10-15T07:06:58.511Z,1.00
2022-10-15T07:12:01.265Z,1.00
2022-10-15T07:17:04.008Z,1.00
2022-10-15T07:22:08.096Z,1.00
2022-10-15T07:27:18.711Z,1.00
2022-10-15T07:32:22.294Z,1.00
2022-10-15T07:37:26.745Z,1.00
2022-10-15T07:42:29.542Z,1.00
2022-10-15T07:47:32.383Z,1.00
2022-10-15T07:52:36.475Z,99.90
2022-10-15T07:57:39.296Z,99.90
2022-10-15T08:02:42.095Z,50.60
2022-10-15T08:07:46.275Z,1.00
2022-10-15T08:12:49.175Z,1.00
2022-10-15T08:17:52.004Z,1.00
2022-10-15T08:22:56.125Z,99.90
2022-10-15T08:27:59.218Z,99.90
2022-10-15T08:33:02.065Z,1.00
2022-10-15T08:38:06.572Z,1.00
2022-10-15T08:43:18.657Z,1.00
2022-10-15T08:48:35.101Z,99.90
2022-10-15T08:53:43.559Z,99.90
2022-10-15T08:58:54.639Z,1.00
2022-10-15T09:04:08.006Z,99.90
2022-10-15T09:09:20.801Z,2.30
2022-10-15T09:14:28.562Z,99.90
2022-10-15T09:19:33.092Z,1.00
2022-10-15T09:24:37.616Z,99.90
2022-10-15T09:29:47.243Z,99.90
2022-10-15T09:34:56.533Z,99.90
2022-10-15T09:40:28.376Z,1.00
2022-10-15T09:45:31.168Z,70.50
2022-10-15T09:50:41.748Z,99.90
2022-10-15T09:55:51.321Z,1.00
2022-10-15T10:01:05.407Z,1.00
2022-10-15T10:06:10.362Z,99.90
2022-10-15T10:11:14.797Z,1.00
2022-10-15T10:16:20.281Z,99.90
2022-10-15T10:21:26.520Z,1.00
2022-10-15T10:26:36.557Z,1.00
2022-10-15T10:31:42.962Z,1.00
2022-10-15T10:36:51.124Z,1.00
2022-10-15T10:41:56.959Z,1.00
2022-10-15T10:47:11.915Z,99.90
2022-10-15T10:52:27.269Z,1.00
2022-10-15T10:57:42.502Z,99.90
2022-10-15T11:02:45.282Z,1.00
2022-10-15T11:07:52.919Z,1.00
2022-10-15T11:18:31.554Z,1.00
2022-10-15T11:23:49.131Z,99.90
2022-10-15T11:29:06.753Z,99.90
2022-10-15T11:34:26.495Z,1.00
2022-10-15T11:39:44.038Z,1.00
2022-10-15T11:45:17.226Z,1.00
2022-10-15T11:50:28.940Z,99.90
2022-10-15T11:55:39.786Z,99.90
2022-10-15T12:00:48.055Z,1.00
2022-10-15T12:05:53.943Z,1.00
2022-10-15T12:11:08.996Z,1.00
2022-10-15T12:16:22.317Z,1.00
2022-10-15T12:21:33.947Z,99.90
2022-10-15T12:26:36.960Z,53.90
2022-10-15T12:31:50.134Z,1.00
2022-10-15T12:37:01.776Z,1.00
2022-10-15T12:42:04.965Z,1.00
2022-10-15T12:47:12.111Z,1.00
2022-10-15T12:52:56.791Z,99.90
2022-10-15T12:58:02.776Z,1.00
2022-10-15T13:03:28.618Z,1.00
2022-10-15T13:08:31.820Z,1.00
2022-10-15T13:13:36.480Z,1.00
2022-10-15T13:18:44.110Z,1.00
2022-10-15T13:23:48.484Z,99.90
2022-10-15T13:28:52.823Z,1.00
2022-10-15T13:34:01.008Z,1.00
2022-10-15T13:39:07.113Z,99.90
2022-10-15T13:44:21.707Z,1.00
2022-10-15T13:49:28.752Z,1.00
2022-10-15T13:54:32.196Z,1.00
2022-10-15T13:59:35.166Z,1.00
2022-10-15T14:04:49.408Z,1.00
2022-10-15T14:10:07.597Z,1.00
2022-10-15T14:15:45.155Z,1.00
2022-10-15T14:20:50.318Z,1.00
2022-10-15T14:25:58.442Z,1.00
2022-10-15T14:31:27.383Z,1.00
2022-10-15T14:36:42.001Z,99.90
2022-10-15T14:41:56.646Z,1.00
2022-10-15T14:47:02.868Z,1.00
2022-10-15T14:52:20.499Z,1.00
2022-10-15T14:57:26.170Z,1.00
2022-10-15T15:02:30.279Z,99.90
2022-10-15T15:07:34.380Z,1.00
2022-10-15T15:12:40.989Z,1.00
2022-10-15T15:17:44.938Z,1.00
2022-10-15T15:22:50.665Z,99.90
2022-10-15T15:27:53.445Z,99.90
2022-10-15T15:32:56.227Z,99.90
2022-10-15T15:38:01.368Z,1.00
2022-10-15T15:43:07.451Z,28.00
2022-10-15T15:48:12.837Z,1.00
2022-10-15T15:53:19.139Z,99.90
2022-10-15T15:58:26.540Z,1.00
2022-10-15T16:03:40.974Z,1.00
2022-10-15T16:08:45.090Z,1.00
2022-10-15T16:14:09.296Z,1.00
2022-10-15T16:19:14.477Z,1.00
2022-10-15T16:24:18.690Z,1.00
2022-10-15T16:29:21.461Z,29.90
2022-10-15T16:34:25.687Z,99.90
2022-10-15T16:39:29.780Z,99.90
2022-10-15T16:44:32.560Z,99.90
2022-10-15T16:49:36.375Z,99.90
2022-10-15T16:54:41.107Z,99.90
2022-10-15T16:59:44.039Z,99.90
2022-10-15T17:04:50.971Z,99.90
2022-10-15T17:09:58.796Z,96.00
2022-10-15T17:15:01.646Z,58.80
2022-10-15T17:20:05.735Z,46.50
2022-10-15T17:25:10.650Z,88.40
2022-10-15T17:30:13.605Z,99.90
2022-10-15T17:35:16.801Z,99.90
2022-10-15T17:40:21.051Z,99.90
2022-10-15T17:45:24.407Z,99.90
2022-10-15T17:50:35.406Z,99.90
2022-10-15T17:55:39.628Z,99.90
2022-10-15T18:00:42.551Z,99.90
2022-10-15T18:05:46.168Z,99.90
2022-10-15T18:10:53.934Z,99.90
2022-10-15T18:16:00.187Z,99.90
2022-10-15T18:21:03.654Z,99.90
2022-10-15T18:26:12.932Z,99.90
2022-10-15T18:31:18.057Z,99.90
2022-10-15T18:36:23.121Z,99.90
2022-10-15T18:41:29.452Z,99.90
2022-10-15T18:46:33.846Z,99.90
2022-10-15T18:51:39.956Z,99.90
2022-10-15T18:56:45.238Z,99.90
2022-10-15T19:02:01.256Z,99.90
2022-10-15T19:07:04.559Z,99.90
2022-10-15T19:12:08.717Z,99.90
2022-10-15T19:17:13.307Z,99.90
2022-10-15T19:22:17.498Z,99.90
2022-10-15T19:27:21.886Z,99.90
2022-10-15T19:32:25.938Z,99.90
2022-10-15T19:37:28.954Z,99.90
2022-10-15T19:42:50.773Z,99.90
2022-10-15T19:48:01.447Z,99.90
2022-10-15T19:53:19.778Z,99.90
2022-10-15T19:58:25.022Z,99.90
2022-10-15T20:03:29.661Z,99.90
2022-10-15T20:08:32.712Z,99.90
2022-10-15T20:13:37.465Z,99.90
2022-10-15T20:18:40.409Z,99.90
2022-10-15T20:23:44.568Z,99.90
2022-10-15T20:28:48.704Z,99.90
2022-10-15T20:33:51.515Z,99.90
2022-10-15T20:38:55.552Z,99.90
2022-10-15T20:43:59.844Z,99.90
2022-10-15T20:49:08.922Z,99.90
2022-10-15T20:54:13.837Z,99.90
2022-10-15T20:59:18.143Z,99.90
2022-10-15T21:04:20.989Z,99.90
2022-10-15T21:09:24.101Z,99.90
2022-10-15T21:14:28.230Z,99.90
2022-10-15T21:19:31.424Z,99.90
2022-10-15T21:24:35.210Z,99.90
2022-10-15T21:29:39.508Z,99.90
2022-10-15T21:34:42.269Z,99.90
2022-10-15T21:39:45.046Z,99.90
2022-10-15T21:44:49.158Z,99.90
2022-10-15T21:49:51.940Z,99.90
2022-10-15T21:54:55.265Z,99.90
2022-10-15T21:59:59.494Z,99.90
2022-10-15T22:05:02.240Z,99.90
2022-10-15T22:10:05.657Z,99.90
2022-10-15T22:15:10.735Z,99.90
2022-10-15T22:20:13.544Z,99.90
2022-10-15T22:25:16.507Z,99.90
2022-10-15T22:30:20.615Z,99.90
2022-10-15T22:35:23.427Z,99.90
2022-10-15T22:40:26.341Z,99.90
2022-10-15T22:45:31.514Z,99.90
2022-10-15T22:50:34.304Z,99.90
2022-10-15T22:55:37.049Z,99.90
2022-10-15T23:00:41.644Z,99.90
2022-10-15T23:05:44.413Z,99.90
2022-10-15T23:10:47.290Z,99.90
2022-10-15T23:15:51.363Z,99.90
2022-10-15T23:20:54.742Z,99.90
2022-10-15T23:25:57.479Z,99.90
2022-10-15T23:31:01.641Z,99.90
2022-10-15T23:36:05.855Z,99.90
2022-10-15T23:41:09.927Z,99.90
2022-10-15T23:46:14.032Z,99.90
2022-10-15T23:51:20.581Z,99.90
2022-10-15T23:56:23.998Z,99.90
